QXE814 KPDX-KGEG
Flight info
| Callsign | QXE814 |
|---|---|
| Flight time | 0h 42m |
| Altitude | 35000 |
| Route | LAVAA7 SUNED ZOOMR ZOOMR2 |
| Aircraft | E75L/M-SDE3GILORVW/S |
Departure
| Time | 2026-04-20 21:48 |
|---|---|
| Airport | Portland International Airport (KPDX) |
Arrival
| Time | 2026-04-20 22:30 |
|---|---|
| Airport | Spokane International Airport (KGEG) |
| Time | Latitude | Longitude | Altitude | Speed | Heading |
|---|---|---|---|---|---|
| 2026-04-20 21:24 | 45.58919 | -122.58858 | 29 ft | 0 kts | 210° |
| 2026-04-20 21:40 | 45.58922 | -122.58856 | 29 ft | 3 kts | 210° |
| 2026-04-20 21:40 | 45.58945 | -122.58837 | 29 ft | 4 kts | 209° |
| 2026-04-20 21:40 | 45.58963 | -122.58823 | 29 ft | 4 kts | 208° |
| 2026-04-20 21:40 | 45.58981 | -122.58817 | 29 ft | 4 kts | 122° |
| 2026-04-20 21:41 | 45.58991 | -122.58841 | 29 ft | 0 kts | 119° |
| 2026-04-20 21:43 | 45.58987 | -122.58829 | 29 ft | 4 kts | 119° |
| 2026-04-20 21:43 | 45.58962 | -122.58767 | 29 ft | 10 kts | 119° |
| 2026-04-20 21:43 | 45.58956 | -122.58655 | 29 ft | 13 kts | 82° |
| 2026-04-20 21:43 | 45.58957 | -122.58537 | 29 ft | 12 kts | 110° |
| 2026-04-20 21:44 | 45.58912 | -122.58421 | 29 ft | 14 kts | 117° |
| 2026-04-20 21:44 | 45.58859 | -122.58288 | 29 ft | 16 kts | 120° |
| 2026-04-20 21:44 | 45.58799 | -122.58140 | 30 ft | 18 kts | 116° |
| 2026-04-20 21:44 | 45.58739 | -122.57974 | 30 ft | 20 kts | 120° |
| 2026-04-20 21:45 | 45.58668 | -122.57798 | 30 ft | 21 kts | 118° |
| 2026-04-20 21:45 | 45.58592 | -122.57602 | 29 ft | 23 kts | 120° |
| 2026-04-20 21:45 | 45.58534 | -122.57452 | 29 ft | 17 kts | 119° |
| 2026-04-20 21:45 | 45.58472 | -122.57295 | 29 ft | 19 kts | 120° |
| 2026-04-20 21:46 | 45.58402 | -122.57123 | 29 ft | 21 kts | 121° |
| 2026-04-20 21:46 | 45.58335 | -122.56948 | 29 ft | 20 kts | 117° |
| 2026-04-20 21:46 | 45.58285 | -122.56822 | 29 ft | 11 kts | 119° |
| 2026-04-20 21:46 | 45.58286 | -122.56720 | 29 ft | 12 kts | 36° |
| 2026-04-20 21:47 | 45.58366 | -122.56708 | 28 ft | 11 kts | 324° |
| 2026-04-20 21:47 | 45.58398 | -122.56787 | 29 ft | 29 kts | 296° |
| 2026-04-20 21:47 | 45.58625 | -122.57373 | 28 ft | 103 kts | 299° |
| 2026-04-20 21:47 | 45.59084 | -122.58537 | 55 ft | 162 kts | 298° |
| 2026-04-20 21:48 | 45.59678 | -122.59978 | 772 ft | 171 kts | 298° |
| 2026-04-20 21:48 | 45.60319 | -122.61505 | 1813 ft | 183 kts | 298° |
| 2026-04-20 21:48 | 45.61013 | -122.63056 | 2991 ft | 193 kts | 297° |
| 2026-04-20 21:48 | 45.61665 | -122.64788 | 3951 ft | 205 kts | 291° |
| 2026-04-20 21:49 | 45.62127 | -122.66788 | 4869 ft | 220 kts | 280° |
| 2026-04-20 21:49 | 45.62443 | -122.68996 | 5844 ft | 234 kts | 288° |
| 2026-04-20 21:49 | 45.63250 | -122.71126 | 6782 ft | 261 kts | 301° |
| 2026-04-20 21:49 | 45.64271 | -122.73397 | 7772 ft | 275 kts | 300° |
| 2026-04-20 21:50 | 45.65260 | -122.75736 | 9168 ft | 279 kts | 298° |
| 2026-04-20 21:50 | 45.66362 | -122.78150 | 10001 ft | 305 kts | 311° |
| 2026-04-20 21:50 | 45.68094 | -122.79978 | 11003 ft | 317 kts | 336° |
| 2026-04-20 21:50 | 45.70234 | -122.80668 | 11996 ft | 327 kts | 2° |
| 2026-04-20 21:51 | 45.72455 | -122.79998 | 13014 ft | 328 kts | 30° |
| 2026-04-20 21:51 | 45.74273 | -122.78115 | 14050 ft | 322 kts | 54° |
| 2026-04-20 21:51 | 45.75759 | -122.75728 | 15152 ft | 324 kts | 52° |
| 2026-04-20 21:51 | 45.77354 | -122.73351 | 15853 ft | 338 kts | 58° |
| 2026-04-20 21:52 | 45.78414 | -122.70364 | 16455 ft | 339 kts | 84° |
| 2026-04-20 21:52 | 45.78452 | -122.67044 | 17262 ft | 335 kts | 103° |
| 2026-04-20 21:52 | 45.78209 | -122.63687 | 18148 ft | 343 kts | 102° |
| 2026-04-20 21:52 | 45.78025 | -122.60245 | 18958 ft | 349 kts | 100° |
| 2026-04-20 21:53 | 45.77873 | -122.56746 | 19761 ft | 355 kts | 100° |
| 2026-04-20 21:53 | 45.77735 | -122.53187 | 20563 ft | 360 kts | 99° |
| 2026-04-20 21:53 | 45.77604 | -122.49585 | 21364 ft | 364 kts | 99° |
| 2026-04-20 21:53 | 45.77479 | -122.45938 | 22135 ft | 369 kts | 99° |
| 2026-04-20 21:54 | 45.77353 | -122.42251 | 22915 ft | 373 kts | 99° |
| 2026-04-20 21:54 | 45.77215 | -122.38526 | 23616 ft | 377 kts | 99° |
| 2026-04-20 21:54 | 45.77069 | -122.34750 | 24155 ft | 383 kts | 99° |
| 2026-04-20 21:54 | 45.76907 | -122.30910 | 24658 ft | 389 kts | 100° |
| 2026-04-20 21:55 | 45.76735 | -122.27010 | 25091 ft | 397 kts | 100° |
| 2026-04-20 21:55 | 45.76552 | -122.23028 | 25532 ft | 404 kts | 100° |
| 2026-04-20 21:55 | 45.76359 | -122.18986 | 25975 ft | 410 kts | 101° |
| 2026-04-20 21:55 | 45.76161 | -122.14946 | 26458 ft | 415 kts | 101° |
| 2026-04-20 21:56 | 45.75952 | -122.10804 | 26960 ft | 420 kts | 102° |
| 2026-04-20 21:56 | 45.75733 | -122.06610 | 27393 ft | 425 kts | 102° |
| 2026-04-20 21:56 | 45.75504 | -122.02367 | 27893 ft | 429 kts | 102° |
| 2026-04-20 21:56 | 45.75267 | -121.98086 | 28317 ft | 434 kts | 102° |
| 2026-04-20 21:57 | 45.75021 | -121.93745 | 28732 ft | 439 kts | 103° |
| 2026-04-20 21:57 | 45.74765 | -121.89355 | 29089 ft | 446 kts | 103° |
| 2026-04-20 21:57 | 45.74726 | -121.84851 | 29418 ft | 463 kts | 92° |
| 2026-04-20 21:57 | 45.75528 | -121.80290 | 29780 ft | 481 kts | 75° |
| 2026-04-20 21:58 | 45.76840 | -121.75838 | 30105 ft | 488 kts | 71° |
| 2026-04-20 21:58 | 45.78214 | -121.71387 | 30494 ft | 491 kts | 71° |
| 2026-04-20 21:58 | 45.79604 | -121.66893 | 30782 ft | 494 kts | 71° |
| 2026-04-20 21:58 | 45.80987 | -121.62377 | 31133 ft | 496 kts | 71° |
| 2026-04-20 21:59 | 45.82372 | -121.57827 | 31443 ft | 500 kts | 72° |
| 2026-04-20 21:59 | 45.83760 | -121.53249 | 31798 ft | 502 kts | 72° |
| 2026-04-20 21:59 | 45.85149 | -121.48651 | 32120 ft | 505 kts | 72° |
| 2026-04-20 21:59 | 45.86541 | -121.44026 | 32477 ft | 506 kts | 72° |
| 2026-04-20 22:00 | 45.87935 | -121.39395 | 32896 ft | 506 kts | 72° |
| 2026-04-20 22:00 | 45.89326 | -121.34755 | 33288 ft | 506 kts | 72° |
| 2026-04-20 22:00 | 45.90715 | -121.30116 | 33698 ft | 506 kts | 72° |
| 2026-04-20 22:00 | 45.92100 | -121.25479 | 34075 ft | 505 kts | 72° |
| 2026-04-20 22:01 | 45.93478 | -121.20846 | 34454 ft | 504 kts | 72° |
| 2026-04-20 22:01 | 45.94847 | -121.16229 | 34844 ft | 502 kts | 72° |
| 2026-04-20 22:01 | 45.96220 | -121.11580 | 34908 ft | 507 kts | 72° |
| 2026-04-20 22:01 | 45.97571 | -121.06998 | 34844 ft | 491 kts | 72° |
| 2026-04-20 22:02 | 45.98903 | -121.02456 | 34864 ft | 496 kts | 72° |
| 2026-04-20 22:02 | 46.01618 | -120.93170 | 34903 ft | 510 kts | 72° |
| 2026-04-20 22:03 | 46.04398 | -120.83639 | 34917 ft | 522 kts | 72° |
| 2026-04-20 22:03 | 46.07206 | -120.73963 | 34842 ft | 526 kts | 71° |
| 2026-04-20 22:04 | 46.10032 | -120.64220 | 34850 ft | 528 kts | 71° |
| 2026-04-20 22:04 | 46.12849 | -120.54460 | 34848 ft | 527 kts | 72° |
| 2026-04-20 22:05 | 46.15663 | -120.44677 | 34836 ft | 528 kts | 71° |
| 2026-04-20 22:05 | 46.18473 | -120.34902 | 34835 ft | 528 kts | 71° |
| 2026-04-20 22:06 | 46.21267 | -120.25096 | 34847 ft | 528 kts | 71° |
| 2026-04-20 22:06 | 46.24045 | -120.15289 | 34842 ft | 528 kts | 71° |
| 2026-04-20 22:07 | 46.26825 | -120.05476 | 34836 ft | 528 kts | 71° |
| 2026-04-20 22:07 | 46.29834 | -119.95790 | 34847 ft | 532 kts | 59° |
| 2026-04-20 22:07 | 46.32205 | -119.91675 | 34841 ft | 534 kts | 44° |
| 2026-04-20 22:08 | 46.34904 | -119.87988 | 34863 ft | 534 kts | 43° |
| 2026-04-20 22:08 | 46.40262 | -119.80511 | 34813 ft | 535 kts | 44° |
| 2026-04-20 22:09 | 46.45588 | -119.72999 | 34833 ft | 534 kts | 44° |
| 2026-04-20 22:09 | 46.50863 | -119.65509 | 34823 ft | 534 kts | 44° |
| 2026-04-20 22:10 | 46.56167 | -119.57947 | 34836 ft | 534 kts | 44° |
| 2026-04-20 22:10 | 46.61461 | -119.50368 | 34833 ft | 532 kts | 44° |
| 2026-04-20 22:11 | 46.66730 | -119.42804 | 34833 ft | 532 kts | 44° |
| 2026-04-20 22:11 | 46.71992 | -119.35225 | 34836 ft | 532 kts | 44° |
| 2026-04-20 22:12 | 46.77255 | -119.27622 | 34759 ft | 531 kts | 44° |
| 2026-04-20 22:12 | 46.79859 | -119.23847 | 34260 ft | 522 kts | 44° |
| 2026-04-20 22:12 | 46.82410 | -119.20139 | 33598 ft | 517 kts | 44° |
| 2026-04-20 22:12 | 46.84944 | -119.16448 | 32948 ft | 511 kts | 44° |
| 2026-04-20 22:13 | 46.87456 | -119.12802 | 32205 ft | 506 kts | 44° |
| 2026-04-20 22:13 | 46.89939 | -119.09201 | 31553 ft | 500 kts | 44° |
| 2026-04-20 22:13 | 46.92394 | -119.05634 | 30875 ft | 494 kts | 44° |
| 2026-04-20 22:13 | 46.94818 | -119.02106 | 30212 ft | 489 kts | 44° |
| 2026-04-20 22:14 | 46.97208 | -118.98619 | 29538 ft | 481 kts | 44° |
| 2026-04-20 22:14 | 46.99551 | -118.95194 | 28950 ft | 471 kts | 45° |
| 2026-04-20 22:14 | 47.01850 | -118.91825 | 28322 ft | 463 kts | 45° |
| 2026-04-20 22:14 | 47.04108 | -118.88514 | 27707 ft | 455 kts | 45° |
| 2026-04-20 22:15 | 47.06329 | -118.85251 | 27113 ft | 448 kts | 45° |
| 2026-04-20 22:15 | 47.08514 | -118.82037 | 26526 ft | 443 kts | 45° |
| 2026-04-20 22:15 | 47.10677 | -118.78849 | 25945 ft | 438 kts | 45° |
| 2026-04-20 22:15 | 47.12820 | -118.75691 | 25356 ft | 435 kts | 45° |
| 2026-04-20 22:16 | 47.14944 | -118.72555 | 24799 ft | 431 kts | 45° |
| 2026-04-20 22:16 | 47.17052 | -118.69438 | 24210 ft | 429 kts | 46° |
| 2026-04-20 22:16 | 47.19139 | -118.66337 | 23650 ft | 424 kts | 46° |
| 2026-04-20 22:16 | 47.21200 | -118.63270 | 23047 ft | 419 kts | 46° |
| 2026-04-20 22:17 | 47.23231 | -118.60244 | 22538 ft | 413 kts | 46° |
| 2026-04-20 22:17 | 47.25214 | -118.57287 | 21998 ft | 409 kts | 46° |
| 2026-04-20 22:17 | 47.27235 | -118.54273 | 21452 ft | 407 kts | 46° |
| 2026-04-20 22:17 | 47.29221 | -118.51324 | 20907 ft | 404 kts | 46° |
| 2026-04-20 22:18 | 47.31167 | -118.48434 | 20371 ft | 402 kts | 46° |
| 2026-04-20 22:18 | 47.33122 | -118.45519 | 19857 ft | 398 kts | 46° |
| 2026-04-20 22:18 | 47.35064 | -118.42622 | 19319 ft | 396 kts | 46° |
| 2026-04-20 22:18 | 47.36985 | -118.39744 | 18800 ft | 392 kts | 46° |
| 2026-04-20 22:19 | 47.38884 | -118.36886 | 18291 ft | 388 kts | 46° |
| 2026-04-20 22:19 | 47.40758 | -118.34054 | 17861 ft | 382 kts | 46° |
| 2026-04-20 22:19 | 47.42594 | -118.31259 | 17341 ft | 376 kts | 48° |
| 2026-04-20 22:19 | 47.44032 | -118.28118 | 16889 ft | 365 kts | 64° |
| 2026-04-20 22:20 | 47.45227 | -118.24836 | 16391 ft | 360 kts | 62° |
| 2026-04-20 22:20 | 47.46466 | -118.21649 | 15921 ft | 356 kts | 61° |
| 2026-04-20 22:20 | 47.47705 | -118.18512 | 15449 ft | 351 kts | 60° |
| 2026-04-20 22:20 | 47.48940 | -118.15416 | 14988 ft | 348 kts | 60° |
| 2026-04-20 22:21 | 47.50166 | -118.12356 | 14535 ft | 344 kts | 59° |
| 2026-04-20 22:21 | 47.51388 | -118.09331 | 14086 ft | 341 kts | 59° |
| 2026-04-20 22:21 | 47.52600 | -118.06328 | 13637 ft | 338 kts | 59° |
| 2026-04-20 22:21 | 47.53803 | -118.03356 | 13180 ft | 334 kts | 59° |
| 2026-04-20 22:22 | 47.54989 | -118.00426 | 12757 ft | 330 kts | 59° |
| 2026-04-20 22:22 | 47.56161 | -117.97529 | 12323 ft | 326 kts | 59° |
| 2026-04-20 22:22 | 47.57319 | -117.94664 | 11899 ft | 323 kts | 59° |
| 2026-04-20 22:22 | 47.58468 | -117.91828 | 11476 ft | 319 kts | 59° |
| 2026-04-20 22:23 | 47.59603 | -117.89017 | 11059 ft | 317 kts | 59° |
| 2026-04-20 22:23 | 47.60728 | -117.86228 | 10641 ft | 314 kts | 58° |
| 2026-04-20 22:23 | 47.61470 | -117.84393 | 10373 ft | 312 kts | 59° |
| 2026-04-20 22:23 | 47.62579 | -117.81636 | 9955 ft | 310 kts | 59° |
| 2026-04-20 22:24 | 47.63682 | -117.78901 | 9525 ft | 308 kts | 59° |
| 2026-04-20 22:24 | 47.64770 | -117.76194 | 9136 ft | 304 kts | 59° |
| 2026-04-20 22:24 | 47.66191 | -117.72659 | 8604 ft | 299 kts | 59° |
| 2026-04-20 22:24 | 47.67247 | -117.70015 | 8206 ft | 296 kts | 59° |
| 2026-04-20 22:25 | 47.68296 | -117.67404 | 7826 ft | 293 kts | 59° |
| 2026-04-20 22:25 | 47.68999 | -117.65650 | 7562 ft | 292 kts | 59° |
| 2026-04-20 22:25 | 47.70035 | -117.63067 | 7184 ft | 290 kts | 59° |
| 2026-04-20 22:25 | 47.71065 | -117.60493 | 6788 ft | 290 kts | 59° |
| 2026-04-20 22:26 | 47.72085 | -117.57937 | 6399 ft | 283 kts | 59° |
| 2026-04-20 22:26 | 47.73065 | -117.55489 | 5976 ft | 268 kts | 59° |
| 2026-04-20 22:26 | 47.73928 | -117.53179 | 5643 ft | 252 kts | 68° |
| 2026-04-20 22:27 | 47.74004 | -117.48324 | 5034 ft | 232 kts | 113° |
| 2026-04-20 22:27 | 47.73165 | -117.46317 | 4762 ft | 228 kts | 135° |
| 2026-04-20 22:27 | 47.71920 | -117.44906 | 4462 ft | 222 kts | 154° |
| 2026-04-20 22:27 | 47.70489 | -117.44255 | 4170 ft | 209 kts | 175° |
| 2026-04-20 22:28 | 47.69088 | -117.44353 | 3875 ft | 196 kts | 193° |
| 2026-04-20 22:28 | 47.67884 | -117.45033 | 3684 ft | 176 kts | 210° |
| 2026-04-20 22:28 | 47.66944 | -117.46081 | 3406 ft | 162 kts | 223° |
| 2026-04-20 22:28 | 47.66187 | -117.47187 | 3202 ft | 147 kts | 225° |
| 2026-04-20 22:29 | 47.65486 | -117.48252 | 2952 ft | 142 kts | 226° |
| 2026-04-20 22:29 | 47.64813 | -117.49302 | 2795 ft | 140 kts | 227° |
| 2026-04-20 22:29 | 47.64125 | -117.50323 | 2666 ft | 139 kts | 227° |
| 2026-04-20 22:29 | 47.63449 | -117.51335 | 2493 ft | 137 kts | 226° |
| 2026-04-20 22:30 | 47.62793 | -117.52324 | 2379 ft | 127 kts | 227° |
| 2026-04-20 22:30 | 47.62260 | -117.53128 | 2374 ft | 88 kts | 225° |
| 2026-04-20 22:30 | 47.61944 | -117.53602 | 2372 ft | 36 kts | 225° |
| 2026-04-20 22:30 | 47.61832 | -117.53773 | 2373 ft | 16 kts | 231° |
| 2026-04-20 22:31 | 47.61813 | -117.53928 | 2374 ft | 15 kts | 271° |
| 2026-04-20 22:31 | 47.61815 | -117.54089 | 2373 ft | 9 kts | 270° |
| 2026-04-20 22:31 | 47.61850 | -117.54128 | 2373 ft | 10 kts | 11° |
| 2026-04-20 22:31 | 47.61925 | -117.54037 | 2373 ft | 18 kts | 45° |
| 2026-04-20 22:32 | 47.62021 | -117.53893 | 2373 ft | 21 kts | 46° |
| 2026-04-20 22:32 | 47.62118 | -117.53746 | 2372 ft | 17 kts | 45° |
| 2026-04-20 22:32 | 47.62190 | -117.53705 | 2372 ft | 10 kts | 327° |
| 2026-04-20 22:32 | 47.62246 | -117.53781 | 2372 ft | 11 kts | 336° |
| 2026-04-20 22:33 | 47.62291 | -117.53804 | 2372 ft | 3 kts | 354° |
| 2026-04-20 22:33 | 47.62316 | -117.53814 | 2372 ft | 4 kts | 336° |
| 2026-04-20 22:33 | 47.62329 | -117.53822 | 2372 ft | 0 kts | 338° |